createdAt,value
2022-12-25T00:01:09.785Z,26.57
2022-12-25T00:03:52.650Z,24.00
2022-12-25T00:06:21.802Z,24.73
2022-12-25T00:08:51.240Z,23.50
2022-12-25T00:11:20.860Z,24.10
2022-12-25T00:13:49.979Z,23.43
2022-12-25T00:16:21.504Z,24.03
2022-12-25T00:18:52.279Z,23.27
2022-12-25T00:21:21.912Z,22.83
2022-12-25T00:23:55.534Z,21.03
2022-12-25T00:26:24.234Z,22.30
2022-12-25T00:28:54.406Z,21.77
2022-12-25T00:31:23.631Z,20.70
2022-12-25T00:33:54.613Z,24.60
2022-12-25T00:36:24.236Z,20.93
2022-12-25T00:38:53.339Z,19.50
2022-12-25T00:41:44.339Z,21.43
2022-12-25T00:44:14.772Z,18.33
2022-12-25T00:46:43.928Z,20.10
2022-12-25T00:49:14.584Z,18.80
2022-12-25T00:51:43.480Z,18.30
2022-12-25T00:54:12.192Z,16.40
2022-12-25T00:56:40.669Z,17.00
2022-12-25T00:59:09.624Z,17.63
2022-12-25T01:01:38.602Z,18.33
2022-12-25T01:04:08.787Z,17.57
2022-12-25T01:06:39.014Z,17.50
2022-12-25T01:09:25.776Z,17.37
2022-12-25T01:11:54.489Z,18.13
2022-12-25T01:14:23.271Z,18.00
2022-12-25T01:16:51.763Z,17.63
2022-12-25T01:19:20.597Z,17.00
2022-12-25T01:21:50.393Z,17.93
2022-12-25T01:24:19.116Z,16.43
2022-12-25T01:26:47.524Z,17.70
2022-12-25T01:29:16.204Z,14.70
2022-12-25T01:31:45.548Z,14.97
2022-12-25T01:34:14.319Z,16.73
2022-12-25T01:36:42.748Z,16.57
2022-12-25T01:39:12.795Z,14.93
2022-12-25T01:41:41.292Z,14.10
2022-12-25T01:44:48.542Z,14.70
2022-12-25T01:47:19.271Z,14.63
2022-12-25T01:49:50.924Z,13.00
2022-12-25T01:52:24.485Z,14.57
2022-12-25T01:54:58.690Z,13.97
2022-12-25T01:57:31.755Z,14.20
2022-12-25T02:00:01.952Z,14.00
2022-12-25T02:02:33.562Z,13.77
2022-12-25T02:05:08.203Z,14.77
2022-12-25T02:07:41.191Z,14.60
2022-12-25T02:10:14.052Z,12.83
2022-12-25T02:12:45.095Z,13.17
2022-12-25T02:15:16.656Z,13.70
2022-12-25T02:17:52.271Z,14.07
2022-12-25T02:20:38.285Z,12.30
2022-12-25T02:23:24.598Z,12.47
2022-12-25T02:26:12.035Z,11.30
2022-12-25T02:28:48.124Z,11.33
2022-12-25T02:31:23.433Z,11.87
2022-12-25T02:34:04.646Z,12.90
2022-12-25T02:36:39.180Z,11.97
2022-12-25T02:39:32.766Z,11.53
2022-12-25T02:42:07.098Z,11.27
2022-12-25T02:44:56.606Z,11.57
2022-12-25T02:47:44.123Z,12.37
2022-12-25T02:50:32.260Z,11.03
2022-12-25T02:53:20.921Z,12.47
2022-12-25T02:56:08.628Z,11.70
2022-12-25T02:58:58.183Z,11.63
2022-12-25T03:01:48.161Z,12.37
2022-12-25T03:04:39.891Z,12.43
2022-12-25T03:07:11.197Z,11.30
2022-12-25T03:09:59.933Z,12.97
2022-12-25T03:12:38.686Z,12.60
2022-12-25T03:15:27.445Z,13.07
2022-12-25T03:18:00.345Z,12.63
2022-12-25T03:20:48.616Z,13.10
2022-12-25T03:23:37.386Z,12.60
2022-12-25T03:26:24.762Z,12.03
2022-12-25T03:28:53.205Z,13.30
2022-12-25T03:31:28.384Z,11.97
2022-12-25T03:34:28.934Z,13.37
2022-12-25T03:37:28.945Z,12.17
2022-12-25T03:40:21.920Z,12.57
2022-12-25T03:43:13.996Z,13.83
2022-12-25T03:46:04.220Z,13.20
2022-12-25T03:48:54.283Z,13.00
2022-12-25T03:51:48.320Z,13.17
2022-12-25T03:54:38.458Z,13.37
2022-12-25T03:57:24.972Z,12.87
2022-12-25T04:00:11.205Z,13.70
2022-12-25T04:02:57.247Z,12.60
2022-12-25T04:05:43.546Z,13.47
2022-12-25T04:08:30.822Z,13.73
2022-12-25T04:11:18.975Z,13.07
2022-12-25T04:14:04.604Z,14.53
2022-12-25T04:16:50.591Z,14.33
2022-12-25T04:19:36.427Z,13.67
2022-12-25T04:22:22.604Z,13.93
2022-12-25T04:25:09.594Z,13.03
2022-12-25T04:27:55.690Z,13.77
2022-12-25T04:30:41.405Z,12.40
2022-12-25T04:33:27.555Z,13.37
2022-12-25T04:36:10.927Z,13.10
2022-12-25T04:38:41.149Z,13.00
2022-12-25T04:41:12.946Z,13.27
2022-12-25T04:43:41.953Z,13.77
2022-12-25T04:46:10.445Z,13.37
2022-12-25T04:48:39.758Z,13.87
2022-12-25T04:51:12.895Z,14.33
2022-12-25T04:53:41.682Z,12.37
2022-12-25T04:56:11.786Z,13.10
2022-12-25T04:58:40.819Z,13.47
2022-12-25T05:01:09.592Z,12.87
2022-12-25T05:03:38.969Z,12.70
2022-12-25T05:06:08.107Z,13.77
2022-12-25T05:08:37.756Z,13.50
2022-12-25T05:11:07.777Z,13.13
2022-12-25T05:13:38.435Z,13.60
2022-12-25T05:16:07.896Z,13.30
2022-12-25T05:18:36.760Z,11.33
2022-12-25T05:21:05.483Z,13.17
2022-12-25T05:23:35.178Z,13.23
2022-12-25T05:26:06.832Z,13.27
2022-12-25T05:28:37.136Z,14.03
2022-12-25T05:31:05.593Z,12.73
2022-12-25T05:33:34.576Z,12.50
2022-12-25T05:36:04.920Z,11.53
2022-12-25T05:38:34.017Z,12.43
2022-12-25T05:41:02.698Z,12.60
2022-12-25T05:43:31.475Z,12.20
2022-12-25T05:46:06.346Z,11.70
2022-12-25T05:48:36.051Z,12.17
2022-12-25T05:51:08.750Z,11.40
2022-12-25T05:53:37.940Z,11.90
2022-12-25T05:56:08.414Z,11.27
2022-12-25T05:58:40.385Z,10.23
2022-12-25T06:01:14.501Z,10.67
2022-12-25T06:03:43.390Z,10.20
2022-12-25T06:06:12.610Z,10.60
2022-12-25T06:08:41.857Z,10.57
2022-12-25T06:11:11.475Z,10.20
2022-12-25T06:13:40.265Z,10.17
2022-12-25T06:16:10.765Z,10.17
2022-12-25T06:18:43.781Z,9.70
2022-12-25T06:21:14.870Z,9.53
2022-12-25T06:23:44.601Z,10.30
2022-12-25T06:26:16.557Z,10.30
2022-12-25T06:28:46.240Z,8.87
2022-12-25T06:31:16.954Z,9.70
2022-12-25T06:33:47.550Z,9.13
2022-12-25T06:36:18.335Z,8.93
2022-12-25T06:38:47.636Z,9.10
2022-12-25T06:41:17.888Z,10.17
2022-12-25T06:43:49.729Z,8.67
2022-12-25T06:46:19.158Z,9.80
2022-12-25T06:48:50.156Z,9.13
2022-12-25T06:51:19.775Z,9.37
2022-12-25T06:53:48.848Z,9.77
2022-12-25T06:56:19.305Z,9.80
2022-12-25T06:58:50.207Z,9.43
2022-12-25T07:01:21.618Z,10.13
2022-12-25T07:03:54.075Z,9.60
2022-12-25T07:06:22.800Z,9.60
2022-12-25T07:08:51.732Z,11.27
2022-12-25T07:11:21.049Z,9.07
2022-12-25T07:13:49.856Z,10.17
2022-12-25T07:16:18.394Z,11.83
2022-12-25T07:18:47.490Z,11.27
2022-12-25T07:21:20.961Z,10.33
2022-12-25T07:23:51.010Z,10.73
2022-12-25T07:26:19.501Z,10.50
2022-12-25T07:28:48.275Z,10.30
2022-12-25T07:31:18.338Z,11.57
2022-12-25T07:33:47.123Z,10.27
2022-12-25T07:36:17.509Z,10.97
2022-12-25T07:38:50.083Z,10.87
2022-12-25T07:41:18.989Z,10.53
2022-12-25T07:43:51.175Z,10.33
2022-12-25T07:46:20.144Z,10.27
2022-12-25T07:48:49.073Z,11.00
2022-12-25T07:51:19.175Z,10.27
2022-12-25T07:53:47.878Z,11.23
2022-12-25T07:56:18.659Z,10.33
2022-12-25T07:58:48.668Z,9.37
2022-12-25T08:01:19.922Z,10.77
2022-12-25T08:03:53.512Z,10.13
2022-12-25T08:06:29.796Z,10.40
2022-12-25T08:09:03.100Z,8.67
2022-12-25T08:11:31.668Z,8.87
2022-12-25T08:14:00.451Z,9.97
2022-12-25T08:16:29.216Z,9.33
2022-12-25T08:18:57.950Z,10.30
2022-12-25T08:21:27.868Z,9.57
2022-12-25T08:23:56.551Z,9.83
2022-12-25T08:26:25.362Z,9.13
2022-12-25T08:28:54.136Z,9.50
2022-12-25T08:31:24.105Z,10.20
2022-12-25T08:33:54.530Z,10.47
2022-12-25T08:36:23.664Z,9.67
2022-12-25T08:39:02.139Z,11.73
2022-12-25T08:41:32.081Z,10.80
2022-12-25T08:44:00.870Z,10.73
2022-12-25T08:46:29.535Z,10.33
2022-12-25T08:48:58.388Z,9.57
2022-12-25T08:51:27.560Z,11.10
2022-12-25T08:54:01.272Z,10.90
2022-12-25T08:56:30.083Z,9.80
2022-12-25T08:58:58.805Z,11.27
2022-12-25T09:01:27.465Z,9.63
2022-12-25T09:03:56.437Z,9.37
2022-12-25T09:06:24.918Z,11.30
2022-12-25T09:08:53.656Z,9.53
2022-12-25T09:11:24.428Z,9.73
2022-12-25T09:13:53.196Z,9.60
2022-12-25T09:16:23.221Z,9.57
2022-12-25T09:18:52.374Z,10.17
2022-12-25T09:21:21.101Z,11.47
2022-12-25T09:23:50.081Z,9.47
2022-12-25T09:26:19.724Z,9.87
2022-12-25T09:28:52.355Z,10.37
2022-12-25T09:31:22.870Z,10.43
2022-12-25T09:33:52.303Z,10.30
2022-12-25T09:36:23.297Z,10.37
2022-12-25T09:38:52.733Z,9.43
2022-12-25T09:41:29.222Z,8.90
2022-12-25T09:44:04.939Z,9.03
2022-12-25T09:46:40.835Z,15.57
2022-12-25T09:49:19.931Z,28.57
2022-12-25T09:51:54.370Z,15.43
2022-12-25T09:54:28.537Z,11.33
2022-12-25T09:56:56.964Z,11.07
2022-12-25T09:59:28.508Z,10.60
2022-12-25T10:02:19.864Z,10.87
2022-12-25T10:05:05.300Z,11.07
2022-12-25T10:07:42.891Z,11.13
2022-12-25T10:10:32.566Z,10.13
2022-12-25T10:13:13.247Z,10.50
2022-12-25T10:15:51.907Z,10.93
2022-12-25T10:18:39.437Z,9.90
2022-12-25T10:21:14.002Z,10.87
2022-12-25T10:23:47.059Z,10.13
2022-12-25T10:26:18.522Z,11.20
2022-12-25T10:28:48.577Z,11.13
2022-12-25T10:31:24.181Z,10.40
2022-12-25T10:33:54.826Z,11.63
2022-12-25T10:36:25.999Z,10.90
2022-12-25T10:38:55.485Z,10.20
2022-12-25T10:41:39.651Z,10.43
2022-12-25T10:44:15.304Z,9.87
2022-12-25T10:46:49.807Z,10.57
2022-12-25T10:49:21.899Z,10.03
2022-12-25T10:51:51.000Z,9.20
2022-12-25T10:54:23.404Z,10.13
2022-12-25T10:56:57.407Z,9.97
2022-12-25T10:59:27.638Z,12.53
2022-12-25T11:02:05.134Z,12.00
2022-12-25T11:04:36.715Z,12.50
2022-12-25T11:07:08.793Z,12.30
2022-12-25T11:09:37.413Z,11.80
2022-12-25T11:12:06.815Z,12.17
2022-12-25T11:14:35.257Z,12.03
2022-12-25T11:17:10.757Z,12.00
2022-12-25T11:19:39.235Z,11.07
2022-12-25T11:22:19.565Z,10.23
2022-12-25T11:24:47.976Z,10.90
2022-12-25T11:27:24.427Z,11.37
2022-12-25T11:29:56.092Z,11.30
2022-12-25T11:32:30.743Z,10.10
2022-12-25T11:35:00.436Z,10.90
2022-12-25T11:37:35.134Z,12.37
2022-12-25T11:40:03.998Z,12.70
2022-12-25T11:42:36.584Z,12.83
2022-12-25T11:45:09.820Z,10.83
2022-12-25T11:47:43.218Z,14.47
2022-12-25T11:50:28.370Z,18.63
2022-12-25T11:52:59.198Z,14.10
2022-12-25T11:55:35.014Z,10.13
2022-12-25T11:58:07.596Z,11.53
2022-12-25T12:00:37.103Z,11.57
2022-12-25T12:03:15.499Z,11.30
2022-12-25T12:05:47.025Z,11.30
2022-12-25T12:08:15.785Z,12.70
2022-12-25T12:11:15.640Z,12.03
2022-12-25T12:14:07.466Z,12.90
2022-12-25T12:16:36.665Z,12.47
2022-12-25T12:19:14.690Z,11.80
2022-12-25T12:21:44.185Z,13.13
2022-12-25T12:24:17.598Z,12.73
2022-12-25T12:26:47.749Z,11.43
2022-12-25T12:29:26.999Z,11.67
2022-12-25T12:31:58.389Z,13.07
2022-12-25T12:34:31.541Z,13.97
2022-12-25T12:37:05.143Z,14.00
2022-12-25T12:39:37.785Z,12.03
2022-12-25T12:42:14.542Z,13.17
2022-12-25T12:44:43.591Z,12.40
2022-12-25T12:47:31.305Z,14.03
2022-12-25T12:50:02.577Z,14.07
2022-12-25T12:52:37.055Z,15.20
2022-12-25T12:55:07.812Z,14.57
2022-12-25T12:57:39.810Z,13.80
2022-12-25T13:00:16.864Z,13.27
2022-12-25T13:03:15.023Z,13.10
2022-12-25T13:05:49.958Z,14.07
2022-12-25T13:08:33.270Z,13.23
2022-12-25T13:11:11.086Z,13.47
2022-12-25T13:13:43.094Z,12.67
2022-12-25T13:16:26.435Z,12.03
2022-12-25T13:18:57.062Z,12.33
2022-12-25T13:21:29.130Z,13.27
2022-12-25T13:23:59.293Z,13.10
2022-12-25T13:26:28.657Z,12.77
2022-12-25T13:28:57.298Z,13.63
2022-12-25T13:31:27.709Z,12.17
2022-12-25T13:33:59.696Z,14.20
2022-12-25T13:36:36.080Z,14.80
2022-12-25T13:39:08.718Z,16.00
2022-12-25T13:42:01.663Z,13.97
2022-12-25T13:44:32.591Z,15.87
2022-12-25T13:47:10.108Z,17.20
2022-12-25T13:49:38.662Z,16.33
2022-12-25T13:52:14.577Z,14.83
2022-12-25T13:54:54.432Z,15.23
2022-12-25T13:57:27.999Z,15.37
2022-12-25T13:59:56.872Z,14.43
2022-12-25T14:02:30.793Z,15.13
2022-12-25T14:04:59.562Z,15.37
2022-12-25T14:07:29.981Z,15.97
2022-12-25T14:10:01.321Z,15.33
2022-12-25T14:12:32.683Z,14.47
2022-12-25T14:15:02.139Z,17.40
2022-12-25T14:17:31.015Z,16.33
2022-12-25T14:20:07.901Z,15.00
2022-12-25T14:22:38.676Z,12.63
2022-12-25T14:25:16.415Z,12.17
2022-12-25T14:27:50.606Z,13.60
2022-12-25T14:30:19.534Z,12.43
2022-12-25T14:32:51.840Z,13.47
2022-12-25T14:35:23.519Z,13.53
2022-12-25T14:38:01.053Z,13.33
2022-12-25T14:40:31.526Z,13.20
2022-12-25T14:43:02.253Z,16.00
2022-12-25T14:45:33.195Z,17.53
2022-12-25T14:48:04.336Z,16.70
2022-12-25T14:50:36.395Z,15.07
2022-12-25T14:53:17.760Z,16.77
2022-12-25T14:55:49.400Z,14.97
2022-12-25T14:58:26.737Z,16.20
2022-12-25T15:00:57.295Z,14.23
2022-12-25T15:03:30.435Z,15.33
2022-12-25T15:06:01.324Z,15.60
2022-12-25T15:08:33.532Z,15.93
2022-12-25T15:11:03.397Z,15.17
2022-12-25T15:13:34.285Z,16.00
2022-12-25T15:16:07.345Z,15.90
2022-12-25T15:18:40.613Z,14.63
2022-12-25T15:21:16.337Z,17.10
2022-12-25T15:23:46.516Z,18.37
2022-12-25T15:26:15.981Z,16.60
2022-12-25T15:28:44.865Z,17.60
2022-12-25T15:31:22.944Z,16.20
2022-12-25T15:33:52.121Z,15.13
2022-12-25T15:36:21.027Z,15.83
2022-12-25T15:38:51.764Z,19.40
2022-12-25T15:41:36.867Z,19.37
2022-12-25T15:44:06.994Z,18.53
2022-12-25T15:46:36.276Z,15.97
2022-12-25T15:49:05.580Z,16.10
2022-12-25T15:51:34.321Z,15.37
2022-12-25T15:54:04.693Z,13.73
2022-12-25T15:56:41.788Z,16.43
2022-12-25T15:59:12.466Z,14.37
2022-12-25T16:01:43.175Z,15.03
2022-12-25T16:04:12.141Z,14.17
2022-12-25T16:06:40.584Z,14.33
2022-12-25T16:09:12.110Z,14.80
2022-12-25T16:11:41.312Z,14.40
2022-12-25T16:14:10.274Z,15.67
2022-12-25T16:16:39.101Z,16.53
2022-12-25T16:19:08.367Z,17.73
2022-12-25T16:21:40.343Z,20.30
2022-12-25T16:24:10.707Z,19.67
2022-12-25T16:26:39.253Z,18.83
2022-12-25T16:29:08.200Z,18.80
2022-12-25T16:31:37.426Z,18.23
2022-12-25T16:34:07.945Z,18.80
2022-12-25T16:36:37.128Z,17.10
2022-12-25T16:39:06.663Z,17.33
2022-12-25T16:41:36.650Z,20.27
2022-12-25T16:44:09.487Z,20.17
2022-12-25T16:46:40.930Z,20.83
2022-12-25T16:49:09.818Z,23.20
2022-12-25T16:51:38.318Z,22.83
2022-12-25T16:54:07.178Z,23.57
2022-12-25T16:56:37.203Z,26.37
2022-12-25T16:59:05.968Z,24.03
2022-12-25T17:01:34.641Z,24.13
2022-12-25T17:04:03.686Z,25.73
2022-12-25T17:06:32.954Z,27.20
2022-12-25T17:09:03.624Z,25.40
2022-12-25T17:11:32.815Z,25.87
2022-12-25T17:14:04.561Z,24.23
2022-12-25T17:16:34.887Z,26.00
2022-12-25T17:19:08.133Z,25.63
2022-12-25T17:21:38.159Z,28.23
2022-12-25T17:24:07.956Z,25.03
2022-12-25T17:26:36.549Z,24.30
2022-12-25T17:29:06.617Z,24.47
2022-12-25T17:31:35.781Z,27.33
2022-12-25T17:34:06.005Z,24.23
2022-12-25T17:36:34.557Z,25.60
2022-12-25T17:39:05.407Z,23.37
2022-12-25T17:41:34.508Z,24.93
2022-12-25T17:44:03.365Z,25.27
2022-12-25T17:46:34.064Z,25.10
2022-12-25T17:49:03.747Z,25.30
2022-12-25T17:51:32.929Z,28.10
2022-12-25T17:54:04.122Z,27.33
2022-12-25T17:56:33.569Z,28.00
2022-12-25T17:59:06.643Z,25.27
2022-12-25T18:01:38.415Z,27.60
2022-12-25T18:04:08.206Z,26.70
2022-12-25T18:06:38.150Z,26.97
2022-12-25T18:09:07.884Z,27.57
2022-12-25T18:11:40.313Z,28.33
2022-12-25T18:14:12.172Z,25.30
2022-12-25T18:16:44.216Z,27.63
2022-12-25T18:19:15.024Z,27.67
2022-12-25T18:21:43.711Z,27.80
2022-12-25T18:24:13.148Z,27.23
2022-12-25T18:26:41.628Z,25.77
2022-12-25T18:29:10.355Z,27.63
2022-12-25T18:31:39.044Z,31.73
2022-12-25T18:34:09.198Z,27.33
2022-12-25T18:36:38.026Z,26.23
2022-12-25T18:39:06.841Z,27.43
2022-12-25T18:41:55.362Z,26.50
2022-12-25T18:44:38.998Z,25.87
2022-12-25T18:47:07.654Z,25.67
2022-12-25T18:49:38.034Z,27.13
2022-12-25T18:52:49.079Z,27.77
2022-12-25T18:54:56.879Z,27.93
2022-12-25T18:57:25.829Z,24.33
2022-12-25T18:59:54.658Z,24.60
2022-12-25T19:02:23.275Z,25.80
2022-12-25T19:04:53.606Z,24.17
2022-12-25T19:07:23.431Z,23.47
2022-12-25T19:09:52.307Z,25.57
2022-12-25T19:12:20.812Z,26.33
2022-12-25T19:14:49.785Z,24.03
2022-12-25T19:17:19.050Z,23.63
2022-12-25T19:19:48.041Z,24.67
2022-12-25T19:22:17.936Z,23.77
2022-12-25T19:24:46.732Z,24.60
2022-12-25T19:27:15.206Z,23.23
2022-12-25T19:29:44.175Z,23.60
2022-12-25T19:32:12.748Z,26.10
2022-12-25T19:34:41.582Z,23.00
2022-12-25T19:37:10.049Z,23.70
2022-12-25T19:39:46.013Z,22.73
2022-12-25T19:42:14.824Z,22.17
2022-12-25T19:44:43.981Z,22.77
2022-12-25T19:47:12.584Z,23.17
2022-12-25T19:49:43.730Z,22.53
2022-12-25T19:52:14.345Z,20.93
2022-12-25T19:54:44.521Z,22.87
2022-12-25T19:57:13.104Z,23.50
2022-12-25T19:59:41.954Z,22.17
2022-12-25T20:02:11.099Z,22.27
2022-12-25T20:04:39.875Z,21.53
2022-12-25T20:07:08.341Z,25.60
2022-12-25T20:09:37.088Z,34.67
2022-12-25T20:12:09.119Z,24.70
2022-12-25T20:14:39.796Z,23.17
2022-12-25T20:17:15.375Z,22.87
2022-12-25T20:19:44.694Z,22.93
2022-12-25T20:22:13.329Z,24.70
2022-12-25T20:24:42.056Z,23.93
2022-12-25T20:27:11.939Z,23.30
2022-12-25T20:29:41.037Z,23.87
2022-12-25T20:32:09.836Z,25.10
2022-12-25T20:34:38.731Z,23.07
2022-12-25T20:37:07.295Z,23.27
2022-12-25T20:39:36.374Z,48.73
2022-12-25T20:42:06.112Z,68.37
2022-12-25T20:44:36.307Z,62.63
2022-12-25T20:47:04.861Z,56.67
2022-12-25T20:49:34.725Z,56.60
2022-12-25T20:52:05.825Z,51.53
2022-12-25T20:54:35.604Z,52.17
2022-12-25T20:57:04.156Z,48.33
2022-12-25T20:59:37.394Z,50.33
2022-12-25T21:02:08.266Z,51.47
2022-12-25T21:04:56.933Z,46.37
2022-12-25T21:07:25.481Z,43.83
2022-12-25T21:09:54.470Z,45.30
2022-12-25T21:12:23.108Z,46.87
2022-12-25T21:14:52.167Z,43.20
2022-12-25T21:17:22.033Z,45.77
2022-12-25T21:19:51.363Z,45.50
2022-12-25T21:22:19.861Z,49.10
2022-12-25T21:24:51.932Z,48.53
2022-12-25T21:27:20.526Z,48.47
2022-12-25T21:29:49.222Z,47.33
2022-12-25T21:32:35.348Z,47.93
2022-12-25T21:35:06.018Z,48.87
2022-12-25T21:37:34.486Z,46.70
2022-12-25T21:40:03.503Z,55.87
2022-12-25T21:42:31.949Z,53.40
2022-12-25T21:45:00.752Z,48.97
2022-12-25T21:48:00.323Z,45.73
2022-12-25T21:50:39.346Z,52.60
2022-12-25T21:53:08.681Z,55.77
2022-12-25T21:55:37.926Z,59.83
2022-12-25T21:58:06.405Z,55.47
2022-12-25T22:00:35.234Z,62.17
2022-12-25T22:03:03.844Z,58.70
2022-12-25T22:05:54.807Z,56.77
2022-12-25T22:08:23.366Z,62.13
2022-12-25T22:10:52.033Z,53.00
2022-12-25T22:13:37.848Z,55.40
2022-12-25T22:16:24.866Z,54.93
2022-12-25T22:19:10.539Z,54.03
2022-12-25T22:21:41.990Z,54.00
2022-12-25T22:24:10.824Z,60.43
2022-12-25T22:26:39.498Z,59.53
2022-12-25T22:29:07.994Z,57.10
2022-12-25T22:31:40.925Z,57.57
2022-12-25T22:34:16.506Z,57.00
2022-12-25T22:36:48.997Z,52.53
2022-12-25T22:39:17.678Z,52.87
2022-12-25T22:41:48.037Z,51.43
2022-12-25T22:44:17.992Z,52.00
2022-12-25T22:46:47.136Z,54.03
2022-12-25T22:49:16.509Z,49.80
2022-12-25T22:51:47.878Z,53.43
2022-12-25T22:54:17.265Z,46.90
2022-12-25T22:56:48.415Z,46.47
2022-12-25T22:59:18.379Z,49.27
2022-12-25T23:01:47.503Z,43.33
2022-12-25T23:04:16.078Z,50.20
2022-12-25T23:06:46.550Z,51.63
2022-12-25T23:09:22.244Z,52.73
2022-12-25T23:11:52.852Z,50.57
2022-12-25T23:14:38.709Z,48.00
2022-12-25T23:17:29.076Z,45.63
2022-12-25T23:20:16.381Z,41.93
2022-12-25T23:23:04.399Z,40.37
2022-12-25T23:25:49.920Z,46.53
2022-12-25T23:28:39.552Z,48.17
2022-12-25T23:31:07.446Z,43.87
2022-12-25T23:33:36.214Z,43.43
2022-12-25T23:36:04.944Z,42.97
2022-12-25T23:38:34.988Z,43.67
2022-12-25T23:41:03.486Z,49.83
2022-12-25T23:43:32.639Z,45.80
2022-12-25T23:46:01.156Z,48.23
2022-12-25T23:48:30.043Z,44.97
2022-12-25T23:51:03.232Z,39.83
2022-12-25T23:53:32.098Z,38.53
2022-12-25T23:56:02.074Z,43.50
2022-12-25T23:58:30.993Z,46.50
